createdAt,value
2023-03-19T00:00:37.751Z,6.03
2023-03-19T00:03:05.817Z,8.07
2023-03-19T00:05:33.445Z,6.57
2023-03-19T00:08:00.564Z,3.85
2023-03-19T00:10:27.545Z,6.88
2023-03-19T00:12:54.352Z,29.48
2023-03-19T00:15:21.233Z,10.02
2023-03-19T00:17:48.681Z,7.35
2023-03-19T00:20:15.893Z,6.40
2023-03-19T00:22:43.108Z,4.03
2023-03-19T00:25:10.311Z,5.25
2023-03-19T00:27:38.266Z,7.75
2023-03-19T00:30:07.019Z,6.25
2023-03-19T00:32:34.153Z,6.10
2023-03-19T00:35:01.465Z,5.93
2023-03-19T00:37:28.630Z,4.47
2023-03-19T00:39:56.163Z,6.13
2023-03-19T00:42:23.347Z,4.60
2023-03-19T00:44:50.359Z,7.22
2023-03-19T00:47:17.388Z,7.78
2023-03-19T00:49:44.469Z,5.90
2023-03-19T00:52:11.615Z,7.15
2023-03-19T00:54:38.491Z,7.10
2023-03-19T00:57:09.805Z,5.68
2023-03-19T00:59:36.951Z,6.20
2023-03-19T01:02:04.601Z,5.47
2023-03-19T01:04:31.615Z,7.85
2023-03-19T01:09:26.057Z,5.57
2023-03-19T01:11:53.162Z,6.97
2023-03-19T01:14:20.594Z,8.55
2023-03-19T01:16:47.579Z,8.48
2023-03-19T01:19:16.017Z,6.13
2023-03-19T01:21:46.313Z,6.47
2023-03-19T01:24:13.500Z,8.70
2023-03-19T01:26:40.651Z,7.68
2023-03-19T01:29:08.280Z,9.90
2023-03-19T01:31:35.929Z,11.38
2023-03-19T01:34:03.030Z,8.32
2023-03-19T01:36:29.895Z,11.48
2023-03-19T01:38:57.200Z,9.43
2023-03-19T01:41:24.929Z,9.70
2023-03-19T01:43:51.788Z,8.30
2023-03-19T01:46:34.982Z,11.43
2023-03-19T01:49:06.378Z,11.20
2023-03-19T01:51:41.983Z,9.20
2023-03-19T01:54:19.605Z,7.20
2023-03-19T01:56:51.345Z,9.50
2023-03-19T01:59:30.156Z,9.95
2023-03-19T02:02:01.468Z,5.97
2023-03-19T02:04:31.858Z,9.80
2023-03-19T02:07:01.283Z,6.97
2023-03-19T02:09:29.401Z,9.63
2023-03-19T02:11:57.651Z,8.45
2023-03-19T02:14:24.957Z,8.05
2023-03-19T02:16:52.971Z,13.90
2023-03-19T02:19:48.460Z,8.82
2023-03-19T02:22:22.854Z,13.25
2023-03-19T02:25:05.257Z,9.55
2023-03-19T02:27:32.421Z,12.32
2023-03-19T02:29:59.330Z,8.35
2023-03-19T02:32:27.167Z,9.48
2023-03-19T02:34:54.007Z,8.35
2023-03-19T02:37:28.210Z,11.98
2023-03-19T02:40:00.905Z,9.88
2023-03-19T02:42:29.260Z,7.68
2023-03-19T02:44:56.563Z,9.05
2023-03-19T02:47:25.469Z,10.27
2023-03-19T02:49:52.620Z,10.65
2023-03-19T02:52:19.588Z,11.23
2023-03-19T02:54:46.816Z,8.43
2023-03-19T02:57:13.692Z,9.90
2023-03-19T02:59:40.552Z,13.10
2023-03-19T03:02:08.278Z,11.82
2023-03-19T03:04:37.063Z,12.35
2023-03-19T03:07:05.120Z,12.93
2023-03-19T03:09:32.754Z,16.30
2023-03-19T03:11:59.658Z,17.30
2023-03-19T03:14:26.565Z,14.32
2023-03-19T03:16:53.443Z,11.40
2023-03-19T03:19:21.538Z,11.80
2023-03-19T03:21:48.566Z,13.60
2023-03-19T03:24:15.721Z,11.85
2023-03-19T03:26:42.764Z,15.25
2023-03-19T03:29:09.822Z,15.25
2023-03-19T03:31:39.532Z,19.38
2023-03-19T03:34:06.462Z,14.27
2023-03-19T03:36:33.940Z,16.17
2023-03-19T03:39:00.864Z,14.30
2023-03-19T03:41:27.673Z,12.45
2023-03-19T03:43:54.643Z,15.30
2023-03-19T03:46:21.685Z,12.40
2023-03-19T03:48:49.808Z,18.98
2023-03-19T03:51:17.670Z,14.18
2023-03-19T03:53:44.724Z,12.68
2023-03-19T03:56:11.947Z,12.23
2023-03-19T03:58:39.350Z,12.32
2023-03-19T04:01:07.882Z,12.77
2023-03-19T04:03:34.923Z,10.88
2023-03-19T04:06:02.188Z,13.13
2023-03-19T04:08:29.975Z,11.35
2023-03-19T04:10:58.209Z,13.48
2023-03-19T04:13:25.455Z,12.80
2023-03-19T04:15:54.795Z,12.05
2023-03-19T04:18:22.151Z,8.90
2023-03-19T04:20:49.027Z,7.72
2023-03-19T04:23:16.254Z,8.65
2023-03-19T04:25:43.324Z,12.60
2023-03-19T04:28:10.524Z,7.75
2023-03-19T04:30:38.280Z,7.68
2023-03-19T04:33:05.501Z,10.52
2023-03-19T04:35:32.434Z,11.50
2023-03-19T04:37:59.368Z,9.82
2023-03-19T04:40:26.378Z,8.45
2023-03-19T04:42:53.666Z,20.80
2023-03-19T04:45:21.829Z,11.38
2023-03-19T04:47:48.697Z,8.60
2023-03-19T04:50:16.076Z,11.90
2023-03-19T04:52:43.123Z,9.50
2023-03-19T04:55:10.389Z,12.85
2023-03-19T04:57:37.420Z,12.63
2023-03-19T05:00:04.644Z,13.43
2023-03-19T05:02:31.555Z,13.68
2023-03-19T05:04:58.481Z,11.90
2023-03-19T05:07:26.454Z,13.48
2023-03-19T05:09:53.333Z,10.55
2023-03-19T05:12:20.267Z,18.42
2023-03-19T05:14:47.116Z,9.80
2023-03-19T05:17:15.797Z,9.20
2023-03-19T05:19:43.535Z,12.77
2023-03-19T05:22:10.653Z,10.30
2023-03-19T05:24:37.541Z,16.35
2023-03-19T05:27:04.518Z,13.32
2023-03-19T05:29:31.484Z,12.93
2023-03-19T05:31:58.325Z,13.35
2023-03-19T05:34:25.616Z,10.85
2023-03-19T05:36:52.484Z,13.93
2023-03-19T05:39:19.698Z,12.85
2023-03-19T05:41:46.770Z,14.30
2023-03-19T05:44:14.510Z,15.80
2023-03-19T05:46:41.790Z,15.48
2023-03-19T05:49:08.721Z,11.05
2023-03-19T05:51:36.783Z,13.65
2023-03-19T05:54:03.978Z,13.27
2023-03-19T05:56:31.019Z,9.50
2023-03-19T05:58:58.057Z,9.80
2023-03-19T06:01:25.518Z,14.77
2023-03-19T06:03:55.157Z,12.15
2023-03-19T06:06:22.874Z,12.73
2023-03-19T06:08:49.667Z,10.50
2023-03-19T06:11:16.682Z,12.40
2023-03-19T06:13:43.648Z,12.32
2023-03-19T06:16:10.723Z,9.48
2023-03-19T06:18:38.344Z,13.88
2023-03-19T06:21:05.945Z,14.63
2023-03-19T06:23:32.779Z,14.60
2023-03-19T06:25:59.945Z,19.35
2023-03-19T06:28:27.705Z,16.88
2023-03-19T06:30:56.088Z,12.35
2023-03-19T06:33:22.981Z,12.45
2023-03-19T06:35:49.798Z,14.35
2023-03-19T06:38:16.798Z,11.65
2023-03-19T06:40:43.669Z,12.95
2023-03-19T06:43:10.706Z,16.67
2023-03-19T06:45:37.654Z,14.90
2023-03-19T06:48:04.715Z,17.08
2023-03-19T06:50:32.915Z,9.60
2023-03-19T06:53:00.583Z,12.40
2023-03-19T06:55:33.214Z,16.05
2023-03-19T06:58:00.452Z,19.60
2023-03-19T07:00:27.998Z,12.25
2023-03-19T07:02:55.864Z,14.02
2023-03-19T07:05:26.314Z,15.00
2023-03-19T07:07:55.578Z,24.30
2023-03-19T07:10:23.042Z,17.15
2023-03-19T07:12:54.336Z,16.80
2023-03-19T07:15:24.158Z,18.27
2023-03-19T07:17:51.057Z,21.75
2023-03-19T07:20:18.111Z,23.88
2023-03-19T07:22:44.888Z,20.25
2023-03-19T07:25:11.866Z,18.65
2023-03-19T07:27:40.275Z,25.35
2023-03-19T07:30:07.809Z,30.13
2023-03-19T07:32:34.830Z,33.85
2023-03-19T07:35:02.708Z,33.72
2023-03-19T07:37:33.993Z,28.50
2023-03-19T07:40:05.912Z,37.15
2023-03-19T07:42:33.396Z,31.80
2023-03-19T07:45:12.431Z,23.80
2023-03-19T07:47:40.232Z,25.73
2023-03-19T07:50:18.492Z,29.77
2023-03-19T07:52:51.392Z,30.30
2023-03-19T07:55:18.547Z,28.25
2023-03-19T07:57:45.380Z,29.35
2023-03-19T08:00:13.083Z,26.75
2023-03-19T08:02:40.580Z,29.08
2023-03-19T08:05:08.673Z,22.42
2023-03-19T08:07:36.528Z,21.30
2023-03-19T08:10:07.393Z,24.38
2023-03-19T08:12:39.722Z,26.45
2023-03-19T08:15:08.282Z,28.05
2023-03-19T08:17:38.209Z,24.65
2023-03-19T08:20:11.383Z,25.85
2023-03-19T08:22:39.299Z,30.27
2023-03-19T08:25:07.231Z,28.75
2023-03-19T08:27:35.806Z,28.70
2023-03-19T08:30:04.919Z,31.05
2023-03-19T08:32:32.097Z,31.77
2023-03-19T08:34:59.083Z,29.10
2023-03-19T08:37:26.066Z,26.20
2023-03-19T08:39:53.386Z,27.70
2023-03-19T08:42:22.153Z,30.63
2023-03-19T08:44:50.262Z,25.50
2023-03-19T08:47:17.302Z,30.45
2023-03-19T08:49:44.162Z,27.95
2023-03-19T08:52:11.780Z,31.70
2023-03-19T08:54:38.962Z,30.77
2023-03-19T08:57:06.233Z,30.75
2023-03-19T08:59:34.308Z,37.95
2023-03-19T09:02:01.720Z,34.53
2023-03-19T09:04:29.426Z,31.52
2023-03-19T09:06:56.812Z,32.13
2023-03-19T09:09:27.819Z,38.40
2023-03-19T09:11:54.693Z,33.17
2023-03-19T09:14:23.193Z,31.90
2023-03-19T09:16:50.309Z,32.88
2023-03-19T09:19:17.454Z,35.40
2023-03-19T09:21:44.999Z,41.17
2023-03-19T09:24:12.286Z,32.83
2023-03-19T09:26:39.212Z,34.78
2023-03-19T09:29:06.270Z,29.23
2023-03-19T09:31:33.605Z,17.33
2023-03-19T09:34:00.632Z,14.50
2023-03-19T09:36:27.509Z,13.57
2023-03-19T09:38:55.018Z,14.27
2023-03-19T09:41:35.720Z,12.95
2023-03-19T09:44:11.220Z,17.15
2023-03-19T09:47:17.104Z,19.73
2023-03-19T09:49:48.467Z,13.98
2023-03-19T09:52:30.534Z,11.90
2023-03-19T09:55:04.612Z,14.90
2023-03-19T09:57:40.584Z,13.25
2023-03-19T10:00:22.976Z,12.48
2023-03-19T10:02:57.265Z,10.50
2023-03-19T10:05:37.345Z,6.97
2023-03-19T10:08:17.202Z,5.68
2023-03-19T10:11:16.490Z,8.93
2023-03-19T10:14:15.214Z,6.88
2023-03-19T10:16:46.782Z,4.75
2023-03-19T10:19:24.778Z,5.82
2023-03-19T10:21:58.934Z,3.83
2023-03-19T10:24:33.417Z,3.42
2023-03-19T10:27:13.337Z,3.28
2023-03-19T10:29:41.509Z,3.70
2023-03-19T10:32:39.370Z,8.85
2023-03-19T10:35:18.092Z,4.10
2023-03-19T10:37:45.080Z,4.80
2023-03-19T10:40:44.528Z,4.80
2023-03-19T10:43:22.795Z,3.90
2023-03-19T10:45:49.792Z,6.07
2023-03-19T10:48:18.497Z,11.90
2023-03-19T10:51:01.280Z,12.45
2023-03-19T10:53:37.146Z,10.82
2023-03-19T10:56:20.283Z,18.30
2023-03-19T10:59:05.842Z,20.10
2023-03-19T11:01:36.492Z,25.02
2023-03-19T11:04:19.483Z,24.67
2023-03-19T11:07:14.185Z,15.43
2023-03-19T11:09:45.815Z,7.45
2023-03-19T11:12:21.853Z,6.45
2023-03-19T11:14:52.420Z,7.43
2023-03-19T11:17:38.998Z,7.63
2023-03-19T11:20:28.468Z,5.47
2023-03-19T11:22:59.522Z,4.45
2023-03-19T11:25:37.710Z,4.90
2023-03-19T11:28:34.475Z,5.55
2023-03-19T11:31:34.291Z,3.67
2023-03-19T11:34:01.142Z,3.97
2023-03-19T11:36:59.480Z,6.35
2023-03-19T11:39:42.456Z,8.13
2023-03-19T11:42:38.264Z,5.03
2023-03-19T11:45:23.676Z,6.05
2023-03-19T11:48:31.737Z,7.28
2023-03-19T11:51:11.384Z,7.03
2023-03-19T11:53:41.744Z,4.38
2023-03-19T11:56:15.445Z,7.07
2023-03-19T11:58:48.425Z,8.38
2023-03-19T12:01:49.639Z,4.07
2023-03-19T12:04:59.503Z,4.35
2023-03-19T12:07:36.065Z,6.38
2023-03-19T12:10:52.736Z,8.82
2023-03-19T12:13:37.883Z,9.00
2023-03-19T12:16:17.050Z,7.30
2023-03-19T12:18:47.333Z,7.63
2023-03-19T12:21:44.883Z,6.80
2023-03-19T12:24:50.820Z,9.43
2023-03-19T12:27:43.046Z,8.10
2023-03-19T12:30:50.280Z,10.00
2023-03-19T12:33:23.053Z,12.30
2023-03-19T12:35:55.488Z,21.20
2023-03-19T12:38:41.658Z,11.02
2023-03-19T12:41:11.770Z,8.02
2023-03-19T12:43:57.258Z,9.85
2023-03-19T12:46:30.207Z,9.10
2023-03-19T12:49:15.531Z,10.13
2023-03-19T12:51:49.539Z,15.15
2023-03-19T12:54:23.974Z,13.20
2023-03-19T12:57:07.225Z,11.25
2023-03-19T12:59:40.365Z,10.38
2023-03-19T13:03:07.021Z,11.48
2023-03-19T13:06:05.972Z,8.90
2023-03-19T13:08:35.426Z,21.45
2023-03-19T13:11:06.743Z,9.60
2023-03-19T13:13:56.237Z,7.10
2023-03-19T13:16:44.376Z,14.40
2023-03-19T13:19:18.323Z,7.85
2023-03-19T13:21:47.438Z,12.30
2023-03-19T13:24:17.332Z,12.55
2023-03-19T13:26:45.423Z,7.93
2023-03-19T13:29:22.764Z,8.80
2023-03-19T13:31:50.906Z,13.30
2023-03-19T13:34:17.986Z,11.35
2023-03-19T13:36:51.809Z,8.98
2023-03-19T13:39:27.402Z,9.63
2023-03-19T13:42:14.465Z,10.70
2023-03-19T13:44:49.575Z,8.55
2023-03-19T13:47:28.954Z,13.30
2023-03-19T13:50:22.538Z,13.77
2023-03-19T13:52:52.486Z,11.48
2023-03-19T13:55:30.865Z,9.50
2023-03-19T13:58:12.718Z,13.15
2023-03-19T14:00:43.047Z,11.32
2023-03-19T14:03:25.602Z,9.32
2023-03-19T14:05:56.726Z,12.52
2023-03-19T14:08:47.348Z,10.65
2023-03-19T14:11:30.710Z,8.55
2023-03-19T14:14:07.788Z,9.68
2023-03-19T14:16:39.328Z,17.60
2023-03-19T14:19:12.247Z,11.45
2023-03-19T14:22:02.592Z,10.55
2023-03-19T14:27:27.373Z,17.30
2023-03-19T14:29:55.413Z,19.95
2023-03-19T14:32:32.132Z,23.33
2023-03-19T14:34:59.882Z,17.50
2023-03-19T14:37:36.408Z,17.85
2023-03-19T14:40:22.242Z,21.42
2023-03-19T14:43:08.158Z,19.98
2023-03-19T14:46:02.757Z,21.67
2023-03-19T14:49:10.138Z,22.42
2023-03-19T14:51:40.635Z,16.45
2023-03-19T14:54:20.306Z,18.48
2023-03-19T14:56:48.774Z,20.80
2023-03-19T14:59:16.117Z,17.33
2023-03-19T15:01:51.237Z,13.35
2023-03-19T15:04:22.844Z,11.65
2023-03-19T15:07:01.474Z,15.50
2023-03-19T15:09:34.091Z,9.60
2023-03-19T15:12:13.043Z,7.63
2023-03-19T15:15:04.745Z,6.65
2023-03-19T15:17:32.504Z,9.82
2023-03-19T15:20:03.875Z,10.48
2023-03-19T15:22:35.343Z,7.20
2023-03-19T15:25:14.848Z,14.75
2023-03-19T15:27:42.758Z,21.50
2023-03-19T15:30:28.849Z,13.43
2023-03-19T15:33:10.512Z,8.57
2023-03-19T15:35:41.736Z,14.88
2023-03-19T15:38:12.398Z,11.00
2023-03-19T15:40:41.407Z,17.95
2023-03-19T15:43:10.366Z,14.70
2023-03-19T15:45:38.272Z,16.08
2023-03-19T15:48:16.600Z,21.27
2023-03-19T15:50:46.387Z,32.47
2023-03-19T15:53:18.437Z,20.27
2023-03-19T15:55:48.071Z,11.90
2023-03-19T15:58:24.697Z,11.95
2023-03-19T16:00:54.104Z,11.70
2023-03-19T16:03:44.145Z,8.27
2023-03-19T16:06:41.956Z,6.18
2023-03-19T16:09:18.229Z,8.43
2023-03-19T16:11:49.163Z,5.78
2023-03-19T16:14:23.187Z,7.05
2023-03-19T16:16:50.881Z,3.97
2023-03-19T16:19:37.870Z,7.90
2023-03-19T16:22:15.007Z,5.47
2023-03-19T16:24:45.080Z,5.38
2023-03-19T16:27:38.828Z,5.55
2023-03-19T16:30:25.504Z,4.85
2023-03-19T16:33:01.131Z,7.88
2023-03-19T16:35:30.447Z,9.48
2023-03-19T16:38:25.117Z,8.65
2023-03-19T16:41:23.258Z,8.00
2023-03-19T16:43:54.455Z,8.55
2023-03-19T16:46:21.669Z,10.65
2023-03-19T16:48:48.728Z,6.72
2023-03-19T16:51:21.115Z,9.88
2023-03-19T16:53:49.279Z,10.75
2023-03-19T16:56:16.829Z,15.35
2023-03-19T16:58:44.997Z,13.23
2023-03-19T17:01:14.500Z,13.13
2023-03-19T17:03:42.613Z,12.02
2023-03-19T17:06:12.091Z,12.48
2023-03-19T17:08:39.578Z,12.95
2023-03-19T17:11:09.453Z,9.15
2023-03-19T17:13:37.590Z,10.27
2023-03-19T17:16:07.148Z,8.05
2023-03-19T17:18:36.756Z,8.38
2023-03-19T17:21:15.255Z,10.05
2023-03-19T17:23:42.707Z,16.27
2023-03-19T17:26:17.390Z,14.38
2023-03-19T17:28:45.275Z,9.40
2023-03-19T17:31:27.467Z,11.82
2023-03-19T17:34:06.267Z,13.07
2023-03-19T17:36:33.806Z,8.10
2023-03-19T17:39:00.702Z,8.85
2023-03-19T17:41:33.033Z,12.27
2023-03-19T17:44:06.263Z,15.23
2023-03-19T17:46:41.528Z,18.40
2023-03-19T17:49:33.875Z,16.98
2023-03-19T17:52:01.687Z,17.77
2023-03-19T17:54:28.780Z,17.70
2023-03-19T17:56:56.225Z,17.40
2023-03-19T17:59:23.909Z,22.52
2023-03-19T18:01:52.301Z,19.58
2023-03-19T18:04:21.687Z,24.67
2023-03-19T18:06:58.834Z,23.02
2023-03-19T18:09:32.874Z,10.23
2023-03-19T18:11:59.884Z,11.73
2023-03-19T18:14:26.874Z,11.85
2023-03-19T18:16:53.870Z,14.02
2023-03-19T18:19:30.822Z,13.63
2023-03-19T18:21:58.087Z,14.10
2023-03-19T18:24:25.371Z,17.73
2023-03-19T18:26:52.252Z,12.07
2023-03-19T18:29:19.241Z,11.10
2023-03-19T18:31:49.210Z,18.38
2023-03-19T18:34:17.194Z,8.80
2023-03-19T18:36:44.380Z,14.52
2023-03-19T18:39:14.293Z,11.00
2023-03-19T18:41:41.874Z,9.35
2023-03-19T18:44:09.695Z,10.30
2023-03-19T18:46:38.526Z,9.23
2023-03-19T18:49:25.256Z,11.50
2023-03-19T18:52:08.674Z,13.07
2023-03-19T18:54:35.834Z,14.38
2023-03-19T18:57:03.058Z,11.63
2023-03-19T18:59:33.234Z,12.68
2023-03-19T19:02:34.003Z,11.95
2023-03-19T19:05:01.803Z,11.07
2023-03-19T19:07:28.882Z,13.40
2023-03-19T19:09:55.899Z,15.57
2023-03-19T19:12:23.330Z,25.65
2023-03-19T19:14:50.363Z,16.52
2023-03-19T19:17:21.244Z,15.20
2023-03-19T19:19:48.231Z,17.60
2023-03-19T19:22:17.729Z,15.13
2023-03-19T19:24:45.447Z,16.83
2023-03-19T19:27:22.556Z,16.50
2023-03-19T19:29:50.327Z,16.15
2023-03-19T19:32:26.324Z,14.55
2023-03-19T19:34:53.923Z,15.38
2023-03-19T19:37:23.278Z,16.58
2023-03-19T19:39:51.292Z,20.23
2023-03-19T19:42:21.173Z,19.48
2023-03-19T19:44:55.250Z,21.00
2023-03-19T19:47:22.430Z,17.40
2023-03-19T19:49:49.862Z,16.92
2023-03-19T19:52:21.528Z,18.38
2023-03-19T19:54:49.007Z,16.23
2023-03-19T19:57:24.909Z,16.63
2023-03-19T19:59:53.170Z,18.30
2023-03-19T20:02:33.265Z,15.82
2023-03-19T20:05:00.435Z,22.05
2023-03-19T20:07:27.872Z,15.18
2023-03-19T20:09:55.192Z,16.15
2023-03-19T20:12:26.829Z,16.88
2023-03-19T20:14:53.998Z,13.35
2023-03-19T20:17:21.537Z,19.15
2023-03-19T20:19:48.897Z,14.63
2023-03-19T20:22:16.327Z,25.90
2023-03-19T20:24:43.319Z,14.90
2023-03-19T20:27:20.317Z,17.80
2023-03-19T20:30:03.153Z,13.20
2023-03-19T20:32:37.447Z,15.88
2023-03-19T20:35:10.806Z,15.32
2023-03-19T20:37:37.921Z,14.73
2023-03-19T20:40:05.545Z,15.55
2023-03-19T20:42:34.470Z,18.58
2023-03-19T20:45:02.406Z,15.68
2023-03-19T20:47:32.935Z,18.15
2023-03-19T20:49:59.994Z,15.35
2023-03-19T20:52:26.873Z,14.13
2023-03-19T20:54:54.134Z,17.90
2023-03-19T20:57:31.559Z,17.42
2023-03-19T21:00:11.551Z,23.13
2023-03-19T21:02:38.435Z,19.92
2023-03-19T21:05:07.810Z,20.77
2023-03-19T21:07:34.892Z,19.75
2023-03-19T21:10:06.563Z,19.55
2023-03-19T21:12:36.161Z,20.85
2023-03-19T21:15:03.694Z,19.85
2023-03-19T21:17:30.796Z,25.98
2023-03-19T21:19:57.964Z,25.20
2023-03-19T21:22:28.671Z,23.80
2023-03-19T21:25:04.344Z,20.63
2023-03-19T21:27:34.647Z,24.80
2023-03-19T21:30:03.318Z,21.88
2023-03-19T21:32:30.388Z,19.35
2023-03-19T21:34:57.534Z,26.67
2023-03-19T21:37:24.690Z,22.05
2023-03-19T21:39:52.080Z,22.35
2023-03-19T21:42:22.726Z,26.10
2023-03-19T21:44:56.905Z,27.40
2023-03-19T21:47:25.841Z,37.15
2023-03-19T21:49:52.935Z,28.33
2023-03-19T21:52:22.298Z,30.40
2023-03-19T21:54:49.959Z,35.92
2023-03-19T21:57:17.518Z,27.67
2023-03-19T21:59:45.510Z,27.15
2023-03-19T22:02:38.292Z,29.50
2023-03-19T22:05:27.064Z,31.23
2023-03-19T22:07:54.875Z,28.45
2023-03-19T22:10:26.975Z,29.10
2023-03-19T22:12:54.505Z,34.65
2023-03-19T22:15:30.794Z,30.25
2023-03-19T22:17:58.868Z,27.48
2023-03-19T22:20:26.605Z,32.72
2023-03-19T22:22:54.027Z,36.75
2023-03-19T22:25:22.363Z,32.35
2023-03-19T22:27:51.494Z,32.10
2023-03-19T22:30:37.079Z,34.08
2023-03-19T22:33:16.585Z,30.05
2023-03-19T22:35:44.761Z,30.95
2023-03-19T22:38:12.683Z,31.55
2023-03-19T22:40:45.843Z,26.00
2023-03-19T22:43:38.776Z,30.83
2023-03-19T22:46:12.953Z,34.17
2023-03-19T22:48:40.132Z,27.63
2023-03-19T22:51:08.158Z,31.70
2023-03-19T22:53:37.340Z,27.83
2023-03-19T22:56:04.749Z,28.65
2023-03-19T22:58:31.675Z,19.88
2023-03-19T23:00:58.647Z,22.75
2023-03-19T23:03:31.013Z,24.35
2023-03-19T23:06:03.490Z,22.98
2023-03-19T23:08:30.382Z,23.77
2023-03-19T23:10:57.965Z,22.77
2023-03-19T23:13:25.067Z,20.77
2023-03-19T23:15:57.173Z,19.60
2023-03-19T23:18:36.581Z,18.75
2023-03-19T23:21:04.450Z,22.38
2023-03-19T23:23:31.841Z,25.50
2023-03-19T23:25:58.790Z,23.75
2023-03-19T23:28:33.971Z,19.15
2023-03-19T23:31:05.564Z,20.05
2023-03-19T23:33:32.818Z,28.23
2023-03-19T23:36:00.552Z,25.45
2023-03-19T23:38:28.362Z,22.13
2023-03-19T23:40:55.343Z,26.35
2023-03-19T23:43:28.020Z,23.27
2023-03-19T23:45:56.258Z,25.10
2023-03-19T23:48:25.950Z,27.45
2023-03-19T23:50:53.574Z,26.15
2023-03-19T23:53:23.479Z,31.52
2023-03-19T23:55:53.178Z,24.30
2023-03-19T23:58:20.532Z,24.90
